createdAt,value
2023-04-25T00:00:51.275Z,71.80
2023-04-25T00:01:51.246Z,71.62
2023-04-25T00:02:51.479Z,71.48
2023-04-25T00:03:51.718Z,71.39
2023-04-25T00:04:57.701Z,71.31
2023-04-25T00:05:51.242Z,71.39
2023-04-25T00:06:51.304Z,71.21
2023-04-25T00:07:51.183Z,71.11
2023-04-25T00:08:51.232Z,70.87
2023-04-25T00:09:57.485Z,70.77
2023-04-25T00:10:51.224Z,70.70
2023-04-25T00:11:51.162Z,70.60
2023-04-25T00:12:51.602Z,70.80
2023-04-25T00:13:51.231Z,70.70
2023-04-25T00:14:57.356Z,70.50
2023-04-25T00:15:51.136Z,70.39
2023-04-25T00:16:51.076Z,70.29
2023-04-25T00:17:51.069Z,70.29
2023-04-25T00:18:51.073Z,70.39
2023-04-25T00:19:51.027Z,70.39
2023-04-25T00:20:57.312Z,70.50
2023-04-25T00:21:51.102Z,70.60
2023-04-25T00:22:50.996Z,70.50
2023-04-25T00:23:51.212Z,70.50
2023-04-25T00:24:50.968Z,70.50
2023-04-25T00:25:50.992Z,70.50
2023-04-25T00:26:57.197Z,70.29
2023-04-25T00:27:50.978Z,70.18
2023-04-25T00:28:50.911Z,70.29
2023-04-25T00:29:50.920Z,70.39
2023-04-25T00:30:51.197Z,70.29
2023-04-25T00:31:50.933Z,70.39
2023-04-25T00:32:57.162Z,70.39
2023-04-25T00:33:51.046Z,70.08
2023-04-25T00:34:50.885Z,70.08
2023-04-25T00:35:50.860Z,70.29
2023-04-25T00:36:50.893Z,70.18
2023-04-25T00:37:57.064Z,70.39
2023-04-25T00:38:50.781Z,70.29
2023-04-25T00:39:50.791Z,70.29
2023-04-25T00:40:50.765Z,70.29
2023-04-25T00:41:50.785Z,70.29
2023-04-25T00:42:50.746Z,70.29
2023-04-25T00:43:56.958Z,70.50
2023-04-25T00:44:51.159Z,70.50
2023-04-25T00:45:50.705Z,70.60
2023-04-25T00:46:50.828Z,70.60
2023-04-25T00:47:50.644Z,70.50
2023-04-25T00:48:56.892Z,70.60
2023-04-25T00:49:50.656Z,70.70
2023-04-25T00:50:50.666Z,70.60
2023-04-25T00:51:50.651Z,70.60
2023-04-25T00:52:50.577Z,70.39
2023-04-25T00:53:51.005Z,70.39
2023-04-25T00:54:56.829Z,70.39
2023-04-25T00:55:50.515Z,70.60
2023-04-25T00:56:50.541Z,70.60
2023-04-25T00:57:50.619Z,70.80
2023-04-25T00:58:50.537Z,70.60
2023-04-25T00:59:50.540Z,70.70
2023-04-25T01:00:56.740Z,70.29
2023-04-25T01:01:50.564Z,70.29
2023-04-25T01:02:50.598Z,70.29
2023-04-25T01:03:50.742Z,70.39
2023-04-25T01:04:50.431Z,70.70
2023-04-25T01:05:50.401Z,70.70
2023-04-25T01:06:56.658Z,70.90
2023-04-25T01:07:50.431Z,71.11
2023-04-25T01:08:50.383Z,71.11
2023-04-25T01:09:50.398Z,71.21
2023-04-25T01:10:50.393Z,70.80
2023-04-25T01:11:50.365Z,70.80
2023-04-25T01:12:56.652Z,70.80
2023-04-25T01:13:50.502Z,70.80
2023-04-25T01:14:50.378Z,70.70
2023-04-25T01:15:50.298Z,70.60
2023-04-25T01:16:50.627Z,70.80
2023-04-25T01:17:56.606Z,70.80
2023-04-25T01:18:50.287Z,70.80
2023-04-25T01:19:50.268Z,70.80
2023-04-25T01:20:50.247Z,70.70
2023-04-25T01:21:50.235Z,70.80
2023-04-25T01:22:56.539Z,70.80
2023-04-25T01:23:50.403Z,70.90
2023-04-25T01:24:50.253Z,71.01
2023-04-25T01:25:50.208Z,71.01
2023-04-25T01:26:50.144Z,71.01
2023-04-25T01:27:56.411Z,71.01
2023-04-25T01:28:50.369Z,71.35
2023-04-25T01:29:50.321Z,71.35
2023-04-25T01:30:50.161Z,71.35
2023-04-25T01:31:50.143Z,71.45
2023-04-25T01:32:56.372Z,71.55
2023-04-25T01:33:50.358Z,71.35
2023-04-25T01:34:50.094Z,71.31
2023-04-25T01:35:50.067Z,71.42
2023-04-25T01:36:49.999Z,70.80
2023-04-25T01:37:50.013Z,70.80
2023-04-25T01:38:56.271Z,70.94
2023-04-25T01:39:49.987Z,70.84
2023-04-25T01:40:50.008Z,71.14
2023-04-25T01:41:49.961Z,71.25
2023-04-25T01:42:49.965Z,71.14
2023-04-25T01:43:56.257Z,71.25
2023-04-25T01:44:49.897Z,71.35
2023-04-25T01:45:50.025Z,71.35
2023-04-25T01:46:49.938Z,71.35
2023-04-25T01:47:50.089Z,71.35
2023-04-25T01:48:49.920Z,71.45
2023-04-25T01:49:56.098Z,71.45
2023-04-25T01:50:49.826Z,71.35
2023-04-25T01:51:49.801Z,71.25
2023-04-25T01:52:49.863Z,71.45
2023-04-25T01:53:50.235Z,71.35
2023-04-25T01:54:56.131Z,71.45
2023-04-25T01:55:49.805Z,71.55
2023-04-25T01:56:49.786Z,71.45
2023-04-25T01:57:49.783Z,71.55
2023-04-25T01:58:49.744Z,71.55
2023-04-25T01:59:50.747Z,71.55
2023-04-25T02:00:55.978Z,71.55
2023-04-25T02:01:49.684Z,71.45
2023-04-25T02:02:49.761Z,71.55
2023-04-25T02:03:50.101Z,71.66
2023-04-25T02:04:49.735Z,71.66
2023-04-25T02:05:49.635Z,71.55
2023-04-25T02:06:55.986Z,71.35
2023-04-25T02:07:49.613Z,71.35
2023-04-25T02:08:49.716Z,71.55
2023-04-25T02:09:49.619Z,71.35
2023-04-25T02:10:49.571Z,71.35
2023-04-25T02:11:49.592Z,71.35
2023-04-25T02:12:55.792Z,71.45
2023-04-25T02:13:49.797Z,71.55
2023-04-25T02:14:49.548Z,71.66
2023-04-25T02:15:49.652Z,71.76
2023-04-25T02:16:49.643Z,71.76
2023-04-25T02:17:49.509Z,71.55
2023-04-25T02:18:55.730Z,71.55
2023-04-25T02:19:49.431Z,71.66
2023-04-25T02:20:49.458Z,71.76
2023-04-25T02:21:49.427Z,71.86
2023-04-25T02:22:49.501Z,71.89
2023-04-25T02:23:55.659Z,71.89
2023-04-25T02:24:49.375Z,72.00
2023-04-25T02:25:49.397Z,72.10
2023-04-25T02:26:49.389Z,72.10
2023-04-25T02:27:49.383Z,71.97
2023-04-25T02:28:55.592Z,72.00
2023-04-25T02:29:49.368Z,72.00
2023-04-25T02:30:49.316Z,72.10
2023-04-25T02:31:50.326Z,72.00
2023-04-25T02:32:49.351Z,72.00
2023-04-25T02:33:49.375Z,72.10
2023-04-25T02:34:55.580Z,72.20
2023-04-25T02:35:49.248Z,72.31
2023-04-25T02:36:49.224Z,71.89
2023-04-25T02:37:49.400Z,72.00
2023-04-25T02:38:49.232Z,72.10
2023-04-25T02:39:55.450Z,72.10
2023-04-25T02:40:49.183Z,72.00
2023-04-25T02:41:49.193Z,72.00
2023-04-25T02:42:49.164Z,72.10
2023-04-25T02:43:49.447Z,72.31
2023-04-25T02:44:49.106Z,72.31
2023-04-25T02:45:55.430Z,72.10
2023-04-25T02:46:49.208Z,72.10
2023-04-25T02:47:49.198Z,72.10
2023-04-25T02:48:49.058Z,72.31
2023-04-25T02:49:49.076Z,72.31
2023-04-25T02:50:55.305Z,72.31
2023-04-25T02:51:49.045Z,72.41
2023-04-25T02:52:49.002Z,72.41
2023-04-25T02:53:49.204Z,72.41
2023-04-25T02:54:49.009Z,72.41
2023-04-25T02:55:48.982Z,72.31
2023-04-25T02:56:55.211Z,72.41
2023-04-25T02:57:48.945Z,72.51
2023-04-25T02:58:48.973Z,72.61
2023-04-25T02:59:48.938Z,72.51
2023-04-25T03:00:48.972Z,72.61
2023-04-25T03:01:48.920Z,72.61
2023-04-25T03:02:55.230Z,72.41
2023-04-25T03:03:49.239Z,72.51
2023-04-25T03:04:48.914Z,72.61
2023-04-25T03:05:48.857Z,72.51
2023-04-25T03:06:48.876Z,72.31
2023-04-25T03:07:55.155Z,72.41
2023-04-25T03:08:48.809Z,72.61
2023-04-25T03:09:48.819Z,72.61
2023-04-25T03:10:48.827Z,72.72
2023-04-25T03:11:48.788Z,72.61
2023-04-25T03:12:55.073Z,72.61
2023-04-25T03:13:49.071Z,72.61
2023-04-25T03:14:48.808Z,72.61
2023-04-25T03:15:48.731Z,72.72
2023-04-25T03:16:48.797Z,72.72
2023-04-25T03:17:48.745Z,72.82
2023-04-25T03:18:54.915Z,72.82
2023-04-25T03:19:48.718Z,72.92
2023-04-25T03:20:48.671Z,72.82
2023-04-25T03:21:48.695Z,72.82
2023-04-25T03:22:48.647Z,73.02
2023-04-25T03:23:48.869Z,73.13
2023-04-25T03:24:54.934Z,73.02
2023-04-25T03:25:48.619Z,73.02
2023-04-25T03:26:48.608Z,73.16
2023-04-25T03:27:48.563Z,73.27
2023-04-25T03:28:48.562Z,73.36
2023-04-25T03:29:54.814Z,73.27
2023-04-25T03:30:48.541Z,73.23
2023-04-25T03:31:48.602Z,73.13
2023-04-25T03:32:48.546Z,73.16
2023-04-25T03:33:48.745Z,73.27
2023-04-25T03:34:48.485Z,73.47
2023-04-25T03:35:54.725Z,73.36
2023-04-25T03:36:48.487Z,73.36
2023-04-25T03:37:48.513Z,73.47
2023-04-25T03:38:48.545Z,73.57
2023-04-25T03:39:48.408Z,73.57
2023-04-25T03:40:48.420Z,73.57
2023-04-25T03:41:54.719Z,73.78
2023-04-25T03:42:48.408Z,74.19
2023-04-25T03:43:48.634Z,73.78
2023-04-25T03:44:48.372Z,73.57
2023-04-25T03:45:48.397Z,73.57
2023-04-25T03:46:48.382Z,73.47
2023-04-25T03:47:54.634Z,73.57
2023-04-25T03:48:48.326Z,73.57
2023-04-25T03:49:48.313Z,73.57
2023-04-25T03:50:48.334Z,73.57
2023-04-25T03:51:48.322Z,73.57
2023-04-25T03:52:54.497Z,73.68
2023-04-25T03:53:48.339Z,73.68
2023-04-25T03:54:48.253Z,73.88
2023-04-25T03:55:48.284Z,73.98
2023-04-25T03:56:48.199Z,74.08
2023-04-25T03:57:54.464Z,73.98
2023-04-25T03:58:48.199Z,73.98
2023-04-25T03:59:48.206Z,73.98
2023-04-25T04:00:48.191Z,73.98
2023-04-25T04:01:48.317Z,73.88
2023-04-25T04:02:54.560Z,74.08
2023-04-25T04:03:48.369Z,74.08
2023-04-25T04:04:48.367Z,73.98
2023-04-25T04:05:48.188Z,73.98
2023-04-25T04:06:48.068Z,74.08
2023-04-25T04:07:48.090Z,73.88
2023-04-25T04:08:54.429Z,74.08
2023-04-25T04:09:48.087Z,74.08
2023-04-25T04:10:48.024Z,73.98
2023-04-25T04:11:48.051Z,74.08
2023-04-25T04:12:48.019Z,74.08
2023-04-25T04:13:48.182Z,74.08
2023-04-25T04:14:54.232Z,74.08
2023-04-25T04:15:47.976Z,73.98
2023-04-25T04:16:47.965Z,73.98
2023-04-25T04:17:48.037Z,73.78
2023-04-25T04:18:47.924Z,73.68
2023-04-25T04:19:54.632Z,73.57
2023-04-25T04:20:48.009Z,73.68
2023-04-25T04:21:47.907Z,73.68
2023-04-25T04:22:47.991Z,74.50
2023-04-25T04:23:47.988Z,74.15
2023-04-25T04:24:54.114Z,73.54
2023-04-25T04:25:47.850Z,73.54
2023-04-25T04:26:47.845Z,73.44
2023-04-25T04:27:47.836Z,73.23
2023-04-25T04:28:47.832Z,73.33
2023-04-25T04:29:47.789Z,73.02
2023-04-25T04:30:54.089Z,73.33
2023-04-25T04:31:47.847Z,73.02
2023-04-25T04:32:50.101Z,72.92
2023-04-25T04:33:47.752Z,73.13
2023-04-25T04:34:47.708Z,73.13
2023-04-25T04:35:47.715Z,73.13
2023-04-25T04:36:53.948Z,73.33
2023-04-25T04:37:47.677Z,73.44
2023-04-25T04:38:47.680Z,73.33
2023-04-25T04:39:47.711Z,73.44
2023-04-25T04:40:47.678Z,73.33
2023-04-25T04:41:53.899Z,73.64
2023-04-25T04:42:47.662Z,73.54
2023-04-25T04:43:47.779Z,73.44
2023-04-25T04:44:47.750Z,73.33
2023-04-25T04:45:47.572Z,73.02
2023-04-25T04:46:53.833Z,73.13
2023-04-25T04:47:47.585Z,73.13
2023-04-25T04:48:47.533Z,73.02
2023-04-25T04:49:47.563Z,73.13
2023-04-25T04:50:47.484Z,73.33
2023-04-25T04:51:47.540Z,73.44
2023-04-25T04:52:53.719Z,73.74
2023-04-25T04:53:47.472Z,73.74
2023-04-25T04:54:47.492Z,73.74
2023-04-25T04:55:47.434Z,73.64
2023-04-25T04:56:47.447Z,73.64
2023-04-25T04:57:47.442Z,73.74
2023-04-25T04:58:53.649Z,73.85
2023-04-25T04:59:47.513Z,73.95
2023-04-25T05:00:47.466Z,73.85
2023-04-25T05:01:47.364Z,73.74
2023-04-25T05:02:47.493Z,73.74
2023-04-25T05:03:54.209Z,73.85
2023-04-25T05:04:47.375Z,73.64
2023-04-25T05:05:47.306Z,73.54
2023-04-25T05:06:48.955Z,73.54
2023-04-25T05:07:47.279Z,73.44
2023-04-25T05:08:47.288Z,73.23
2023-04-25T05:09:53.559Z,73.54
2023-04-25T05:10:47.258Z,73.30
2023-04-25T05:11:47.308Z,73.19
2023-04-25T05:12:47.213Z,73.40
2023-04-25T05:13:47.213Z,72.99
2023-04-25T05:14:53.448Z,72.89
2023-04-25T05:15:47.237Z,73.10
2023-04-25T05:16:47.380Z,73.10
2023-04-25T05:17:47.236Z,73.19
2023-04-25T05:18:47.145Z,73.30
2023-04-25T05:19:47.145Z,73.10
2023-04-25T05:20:53.345Z,73.19
2023-04-25T05:21:47.104Z,73.30
2023-04-25T05:22:47.129Z,73.13
2023-04-25T05:23:47.064Z,73.10
2023-04-25T05:24:47.056Z,73.10
2023-04-25T05:25:47.119Z,73.19
2023-04-25T05:26:53.254Z,73.10
2023-04-25T05:27:47.068Z,73.10
2023-04-25T05:28:47.006Z,73.10
2023-04-25T05:29:46.998Z,73.19
2023-04-25T05:30:47.036Z,73.40
2023-04-25T05:31:53.254Z,73.19
2023-04-25T05:32:47.026Z,72.99
2023-04-25T05:33:46.937Z,72.99
2023-04-25T05:34:46.961Z,73.10
2023-04-25T05:35:46.937Z,73.40
2023-04-25T05:36:46.965Z,73.30
2023-04-25T05:37:53.281Z,73.40
2023-04-25T05:38:46.928Z,73.61
2023-04-25T05:39:46.966Z,73.40
2023-04-25T05:40:46.888Z,73.54
2023-04-25T05:41:46.857Z,73.71
2023-04-25T05:42:53.107Z,73.91
2023-04-25T05:43:46.868Z,74.53
2023-04-25T05:44:46.769Z,73.81
2023-04-25T05:45:46.798Z,73.61
2023-04-25T05:46:46.852Z,73.71
2023-04-25T05:47:53.061Z,73.71
2023-04-25T05:48:46.743Z,73.81
2023-04-25T05:49:46.953Z,73.71
2023-04-25T05:50:46.755Z,73.91
2023-04-25T05:51:46.724Z,74.22
2023-04-25T05:52:46.693Z,74.46
2023-04-25T05:53:53.143Z,74.77
2023-04-25T05:54:46.672Z,74.98
2023-04-25T05:55:46.658Z,74.98
2023-04-25T05:56:46.664Z,74.87
2023-04-25T05:57:46.639Z,74.84
2023-04-25T05:58:46.687Z,75.04
2023-04-25T05:59:53.036Z,74.94
2023-04-25T06:00:46.667Z,74.84
2023-04-25T06:01:46.540Z,74.84
2023-04-25T06:02:46.696Z,74.84
2023-04-25T06:03:46.737Z,74.84
2023-04-25T06:04:46.653Z,74.84
2023-04-25T06:05:52.816Z,74.84
2023-04-25T06:06:46.534Z,74.84
2023-04-25T06:07:46.566Z,74.94
2023-04-25T06:08:46.462Z,75.04
2023-04-25T06:09:46.439Z,75.15
2023-04-25T06:10:46.447Z,75.25
2023-04-25T06:11:52.735Z,75.15
2023-04-25T06:12:46.439Z,76.28
2023-04-25T06:13:46.449Z,75.21
2023-04-25T06:14:46.384Z,74.70
2023-04-25T06:15:46.519Z,74.60
2023-04-25T06:16:52.768Z,75.11
2023-04-25T06:17:46.419Z,74.80
2023-04-25T06:18:46.382Z,74.08
2023-04-25T06:19:46.371Z,73.88
2023-04-25T06:20:46.398Z,73.98
2023-04-25T06:21:46.313Z,74.29
2023-04-25T06:22:52.571Z,75.21
2023-04-25T06:23:46.313Z,74.60
2023-04-25T06:24:46.320Z,74.80
2023-04-25T06:25:46.224Z,74.80
2023-04-25T06:26:46.236Z,75.01
2023-04-25T06:27:46.243Z,74.70
2023-04-25T06:28:52.469Z,74.70
2023-04-25T06:29:46.223Z,74.80
2023-04-25T06:30:46.153Z,74.91
2023-04-25T06:31:46.181Z,74.80
2023-04-25T06:32:46.189Z,75.01
2023-04-25T06:33:46.259Z,75.11
2023-04-25T06:34:52.429Z,75.32
2023-04-25T06:35:46.088Z,75.32
2023-04-25T06:36:46.090Z,75.42
2023-04-25T06:37:46.108Z,75.32
2023-04-25T06:38:46.093Z,75.21
2023-04-25T06:39:46.126Z,75.62
2023-04-25T06:40:52.355Z,75.11
2023-04-25T06:41:46.031Z,75.21
2023-04-25T06:42:45.994Z,75.38
2023-04-25T06:43:46.276Z,74.77
2023-04-25T06:44:46.196Z,74.77
2023-04-25T06:45:52.220Z,74.66
2023-04-25T06:46:46.031Z,74.57
2023-04-25T06:47:46.023Z,74.26
2023-04-25T06:48:45.921Z,74.36
2023-04-25T06:49:45.943Z,74.60
2023-04-25T06:50:52.206Z,75.11
2023-04-25T06:51:45.875Z,75.42
2023-04-25T06:52:45.884Z,75.93
2023-04-25T06:53:45.890Z,76.34
2023-04-25T06:54:45.847Z,75.62
2023-04-25T06:55:52.144Z,75.49
2023-04-25T06:56:45.821Z,74.91
2023-04-25T06:57:45.880Z,75.21
2023-04-25T06:58:45.827Z,75.62
2023-04-25T06:59:45.930Z,75.93
2023-04-25T07:00:45.785Z,76.04
2023-04-25T07:01:52.009Z,75.83
2023-04-25T07:02:45.920Z,75.83
2023-04-25T07:03:46.075Z,75.32
2023-04-25T07:04:45.907Z,75.62
2023-04-25T07:05:45.682Z,76.45
2023-04-25T07:06:52.066Z,75.93
2023-04-25T07:07:45.708Z,75.83
2023-04-25T07:08:45.716Z,75.83
2023-04-25T07:09:45.739Z,75.73
2023-04-25T07:10:47.332Z,77.06
2023-04-25T07:11:45.613Z,76.14
2023-04-25T07:12:51.966Z,76.86
2023-04-25T07:13:45.637Z,76.96
2023-04-25T07:14:45.593Z,76.79
2023-04-25T07:15:45.605Z,77.51
2023-04-25T07:16:45.782Z,77.20
2023-04-25T07:17:51.868Z,77.10
2023-04-25T07:18:45.552Z,77.30
2023-04-25T07:19:45.509Z,77.51
2023-04-25T07:20:45.555Z,77.65
2023-04-25T07:21:45.501Z,77.44
2023-04-25T07:22:52.091Z,78.16
2023-04-25T07:23:45.505Z,77.61
2023-04-25T07:24:45.441Z,76.93
2023-04-25T07:25:45.472Z,77.03
2023-04-25T07:26:45.535Z,77.13
2023-04-25T07:27:45.455Z,77.65
2023-04-25T07:28:51.983Z,77.00
2023-04-25T07:29:45.427Z,76.79
2023-04-25T07:30:45.409Z,77.00
2023-04-25T07:31:45.438Z,75.76
2023-04-25T07:32:45.389Z,75.87
2023-04-25T07:33:45.358Z,75.76
2023-04-25T07:34:51.623Z,75.56
2023-04-25T07:35:45.325Z,75.56
2023-04-25T07:36:45.293Z,75.42
2023-04-25T07:37:45.283Z,75.52
2023-04-25T07:38:45.340Z,74.49
2023-04-25T07:39:51.716Z,75.08
2023-04-25T07:40:45.285Z,75.08
2023-04-25T07:41:45.228Z,73.64
2023-04-25T07:42:45.232Z,73.71
2023-04-25T07:43:45.241Z,73.10
2023-04-25T07:44:51.414Z,72.58
2023-04-25T07:45:45.259Z,72.07
2023-04-25T07:46:45.219Z,71.66
2023-04-25T07:47:45.214Z,71.18
2023-04-25T07:48:45.159Z,70.46
2023-04-25T07:49:45.186Z,70.05
2023-04-25T07:50:51.352Z,69.84
2023-04-25T07:51:45.122Z,70.15
2023-04-25T07:52:45.182Z,70.05
2023-04-25T07:53:45.201Z,71.90
2023-04-25T07:54:45.085Z,70.46
2023-04-25T07:55:51.294Z,69.51
2023-04-25T07:56:52.263Z,67.76
2023-04-25T07:57:46.555Z,65.81
2023-04-25T07:58:45.057Z,65.44
2023-04-25T07:59:45.006Z,65.92
2023-04-25T08:00:51.459Z,65.71
2023-04-25T08:01:44.946Z,65.00
2023-04-25T08:02:45.046Z,64.14
2023-04-25T08:03:45.268Z,64.35
2023-04-25T08:04:45.160Z,64.25
2023-04-25T08:05:45.095Z,64.04
2023-04-25T08:06:51.208Z,64.22
2023-04-25T08:07:44.913Z,64.32
2023-04-25T08:08:44.906Z,62.27
2023-04-25T08:09:44.858Z,62.78
2023-04-25T08:10:44.882Z,61.58
2023-04-25T08:11:51.102Z,62.71
2023-04-25T08:12:44.855Z,62.81
2023-04-25T08:13:44.882Z,63.43
2023-04-25T08:14:44.822Z,65.07
2023-04-25T08:15:44.817Z,64.83
2023-04-25T08:16:44.790Z,64.94
2023-04-25T08:17:51.048Z,65.01
2023-04-25T08:18:44.754Z,64.50
2023-04-25T08:19:44.758Z,64.57
2023-04-25T08:20:44.904Z,62.39
2023-04-25T08:21:44.777Z,64.13
2023-04-25T08:22:50.944Z,63.69
2023-04-25T08:23:44.699Z,61.75
2023-04-25T08:24:44.693Z,60.39
2023-04-25T08:25:44.673Z,59.47
2023-04-25T08:26:45.670Z,58.98
2023-04-25T08:27:44.907Z,60.31
2023-04-25T08:28:51.333Z,60.19
2023-04-25T08:29:44.615Z,57.63
2023-04-25T08:30:44.600Z,57.25
2023-04-25T08:31:44.663Z,57.97
2023-04-25T08:32:44.618Z,56.84
2023-04-25T08:33:50.815Z,56.56
2023-04-25T08:34:44.557Z,57.79
2023-04-25T08:35:44.525Z,56.69
2023-04-25T08:36:44.590Z,57.20
2023-04-25T08:37:44.509Z,56.82
2023-04-25T08:38:52.569Z,57.15
2023-04-25T08:39:44.510Z,59.81
2023-04-25T08:40:44.492Z,60.30
2023-04-25T08:41:44.558Z,58.76
2023-04-25T08:42:44.425Z,59.25
2023-04-25T08:43:50.708Z,56.87
2023-04-25T08:44:44.411Z,55.33
2023-04-25T08:45:44.416Z,55.82
2023-04-25T08:46:44.410Z,54.28
2023-04-25T08:47:44.412Z,54.57
2023-04-25T08:48:44.353Z,53.42
2023-04-25T08:49:50.567Z,54.82
2023-04-25T08:50:44.323Z,53.39
2023-04-25T08:51:44.356Z,52.45
2023-04-25T08:52:44.537Z,51.12
2023-04-25T08:53:46.217Z,52.17
2023-04-25T08:54:44.548Z,51.65
2023-04-25T08:55:50.496Z,50.63
2023-04-25T08:56:44.256Z,50.63
2023-04-25T08:57:44.292Z,51.35
2023-04-25T08:58:44.220Z,51.73
2023-04-25T08:59:44.213Z,49.38
2023-04-25T09:00:44.218Z,49.49
2023-04-25T09:01:50.482Z,49.77
2023-04-25T09:02:44.669Z,49.85
2023-04-25T09:03:44.497Z,49.44
2023-04-25T09:04:44.152Z,50.34
2023-04-25T09:05:44.141Z,48.38
2023-04-25T09:06:44.154Z,47.56
2023-04-25T09:07:50.874Z,47.13
2023-04-25T09:08:44.071Z,45.63
2023-04-25T09:09:44.062Z,46.75
2023-04-25T09:10:44.130Z,45.63
2023-04-25T09:11:44.062Z,45.75
2023-04-25T09:12:44.083Z,46.36
2023-04-25T09:13:50.598Z,45.24
2023-04-25T09:14:44.078Z,45.34
2023-04-25T09:15:44.156Z,45.67
2023-04-25T09:16:44.016Z,45.89
2023-04-25T09:17:44.047Z,47.00
2023-04-25T09:18:50.268Z,47.50
2023-04-25T09:19:43.941Z,46.08
2023-04-25T09:20:59.526Z,45.98
2023-04-25T09:21:46.602Z,45.67
2023-04-25T09:22:43.940Z,45.57
2023-04-25T09:23:50.397Z,47.00
2023-04-25T09:24:43.909Z,45.87
2023-04-25T09:25:43.924Z,46.48
2023-04-25T09:26:43.855Z,46.15
2023-04-25T09:27:43.872Z,47.26
2023-04-25T09:28:43.838Z,46.22
2023-04-25T09:29:50.069Z,47.74
2023-04-25T09:30:43.793Z,45.89
2023-04-25T09:31:43.863Z,45.07
2023-04-25T09:32:43.900Z,44.77
2023-04-25T09:33:43.835Z,44.34
2023-04-25T09:34:43.785Z,42.51
2023-04-25T09:35:50.049Z,42.94
2023-04-25T09:36:43.877Z,43.29
2023-04-25T09:37:44.576Z,44.96
2023-04-25T09:38:43.841Z,45.87
2023-04-25T09:39:43.709Z,45.08
2023-04-25T09:40:49.925Z,46.81
2023-04-25T09:41:43.679Z,45.87
2023-04-25T09:42:43.695Z,45.87
2023-04-25T09:43:43.625Z,45.16
2023-04-25T09:44:43.633Z,44.85
2023-04-25T09:45:49.887Z,47.32
2023-04-25T09:46:43.739Z,46.18
2023-04-25T09:47:43.593Z,46.28
2023-04-25T09:48:43.636Z,44.46
2023-04-25T09:49:43.563Z,44.90
2023-04-25T09:50:43.545Z,46.73
2023-04-25T09:51:49.868Z,47.14
2023-04-25T09:52:43.525Z,46.53
2023-04-25T09:53:43.570Z,46.53
2023-04-25T09:54:43.512Z,46.30
2023-04-25T09:55:43.479Z,46.81
2023-04-25T09:56:43.501Z,45.89
2023-04-25T09:57:49.713Z,45.39
2023-04-25T09:58:43.458Z,46.71
2023-04-25T09:59:43.427Z,45.47
2023-04-25T10:00:43.476Z,44.55
2023-04-25T10:01:43.463Z,44.61
2023-04-25T10:02:49.823Z,42.43
2023-04-25T10:03:43.672Z,42.76
2023-04-25T10:04:43.474Z,42.45
2023-04-25T10:05:43.393Z,42.65
2023-04-25T10:06:43.354Z,43.67
2023-04-25T10:07:43.368Z,42.55
2023-04-25T10:08:49.661Z,41.82
2023-04-25T10:09:43.333Z,41.61
2023-04-25T10:10:43.286Z,42.74
2023-04-25T10:11:43.262Z,41.53
2023-04-25T10:12:43.285Z,42.16
2023-04-25T10:13:43.297Z,41.25
2023-04-25T10:14:49.510Z,41.66
2023-04-25T10:15:43.243Z,40.86
2023-04-25T10:16:43.233Z,40.78
2023-04-25T10:17:43.229Z,41.41
2023-04-25T10:18:43.177Z,42.36
2023-04-25T10:19:49.494Z,43.18
2023-04-25T10:20:43.168Z,43.61
2023-04-25T10:21:43.230Z,43.10
2023-04-25T10:22:43.171Z,43.30
2023-04-25T10:23:43.198Z,43.51
2023-04-25T10:24:49.588Z,43.61
2023-04-25T10:25:43.168Z,43.71
2023-04-25T10:26:43.102Z,43.82
2023-04-25T10:27:43.147Z,43.82
2023-04-25T10:28:43.072Z,43.91
2023-04-25T10:29:43.066Z,44.10
2023-04-25T10:30:49.399Z,43.79
2023-04-25T10:31:43.158Z,44.00
2023-04-25T10:32:43.023Z,44.59
2023-04-25T10:33:43.069Z,43.67
2023-04-25T10:34:42.991Z,43.88
2023-04-25T10:35:43.028Z,44.18
2023-04-25T10:36:49.203Z,43.47
2023-04-25T10:37:42.953Z,44.18
2023-04-25T10:38:42.942Z,44.38
2023-04-25T10:39:43.036Z,45.18
2023-04-25T10:40:42.919Z,43.16
2023-04-25T10:41:42.925Z,43.98
2023-04-25T10:42:49.145Z,43.37
2023-04-25T10:43:42.906Z,43.38
2023-04-25T10:44:42.871Z,43.79
2023-04-25T10:45:42.914Z,44.61
2023-04-25T10:46:42.888Z,44.41
2023-04-25T10:47:42.872Z,43.59
2023-04-25T10:48:49.106Z,43.49
2023-04-25T10:49:42.831Z,43.59
2023-04-25T10:50:42.812Z,43.59
2023-04-25T10:51:54.273Z,44.92
2023-04-25T10:52:44.271Z,44.49
2023-04-25T10:53:49.357Z,43.67
2023-04-25T10:54:42.748Z,43.37
2023-04-25T10:55:42.711Z,44.08
2023-04-25T10:56:42.822Z,43.24
2023-04-25T10:57:42.685Z,43.14
2023-04-25T10:58:51.178Z,44.37
2023-04-25T10:59:42.776Z,43.02
2023-04-25T11:00:56.715Z,43.43
2023-04-25T11:01:44.295Z,42.21
2023-04-25T11:02:42.733Z,43.24
2023-04-25T11:03:42.726Z,42.43
2023-04-25T11:04:48.910Z,42.73
2023-04-25T11:05:51.317Z,42.85
2023-04-25T11:06:44.093Z,42.96
2023-04-25T11:07:43.239Z,43.16
2023-04-25T11:08:42.557Z,42.24
2023-04-25T11:09:48.801Z,42.36
2023-04-25T11:10:42.577Z,42.90
2023-04-25T11:11:42.518Z,43.94
2023-04-25T11:12:42.549Z,44.57
2023-04-25T11:13:42.525Z,45.18
2023-04-25T11:14:42.594Z,45.49
2023-04-25T11:15:54.774Z,46.62
2023-04-25T11:16:44.215Z,46.51
2023-04-25T11:17:42.531Z,47.03
2023-04-25T11:18:42.467Z,46.59
2023-04-25T11:19:42.485Z,47.82
2023-04-25T11:20:48.681Z,45.78
2023-04-25T11:21:42.454Z,45.45
2023-04-25T11:22:42.345Z,46.37
2023-04-25T11:23:42.371Z,45.86
2023-04-25T11:24:42.358Z,42.69
2023-04-25T11:25:42.377Z,42.18
2023-04-25T11:26:48.578Z,41.38
2023-04-25T11:27:42.296Z,41.71
2023-04-25T11:28:42.377Z,41.91
2023-04-25T11:29:42.306Z,41.20
2023-04-25T11:30:42.362Z,41.52
2023-04-25T11:31:42.337Z,41.83
2023-04-25T11:32:48.634Z,41.22
2023-04-25T11:33:42.266Z,42.32
2023-04-25T11:34:42.244Z,42.22
2023-04-25T11:35:42.264Z,43.55
2023-04-25T11:36:42.176Z,43.12
2023-04-25T11:37:42.189Z,41.28
2023-04-25T11:38:48.419Z,40.87
2023-04-25T11:39:42.188Z,40.77
2023-04-25T11:40:42.171Z,40.67
2023-04-25T11:41:42.334Z,40.85
2023-04-25T11:42:42.125Z,40.24
2023-04-25T11:43:48.328Z,40.44
2023-04-25T11:44:42.118Z,40.24
2023-04-25T11:45:42.317Z,40.55
2023-04-25T11:46:42.076Z,41.16
2023-04-25T11:47:42.144Z,40.32
2023-04-25T11:48:48.652Z,40.94
2023-04-25T11:49:42.048Z,39.92
2023-04-25T11:50:42.035Z,40.01
2023-04-25T11:51:41.970Z,40.51
2023-04-25T11:52:42.069Z,41.02
2023-04-25T11:53:48.248Z,40.92
2023-04-25T11:54:41.979Z,39.67
2023-04-25T11:55:41.977Z,39.87
2023-04-25T11:56:41.910Z,41.00
2023-04-25T11:57:41.942Z,39.78
2023-04-25T11:58:48.154Z,40.90
2023-04-25T11:59:41.906Z,40.57
2023-04-25T12:00:41.916Z,40.88
2023-04-25T12:01:43.379Z,41.27
2023-04-25T12:02:41.993Z,42.77
2023-04-25T12:03:48.426Z,39.82
2023-04-25T12:04:42.307Z,39.09
2023-04-25T12:05:42.028Z,39.28
2023-04-25T12:06:41.893Z,39.38
2023-04-25T12:07:41.867Z,38.97
2023-04-25T12:08:41.824Z,39.17
2023-04-25T12:09:48.053Z,38.36
2023-04-25T12:10:41.759Z,38.36
2023-04-25T12:11:41.743Z,38.68
2023-04-25T12:12:41.718Z,39.29
2023-04-25T12:13:41.698Z,39.01
2023-04-25T12:14:41.717Z,38.60
2023-04-25T12:15:48.047Z,39.09
2023-04-25T12:16:41.761Z,38.40
2023-04-25T12:17:41.703Z,39.11
2023-04-25T12:18:42.742Z,39.50
2023-04-25T12:19:41.912Z,38.87
2023-04-25T12:20:41.637Z,38.15
2023-04-25T12:21:57.201Z,37.84
2023-04-25T12:22:43.118Z,36.80
2023-04-25T12:23:41.609Z,36.69
2023-04-25T12:24:41.622Z,37.08
2023-04-25T12:25:41.604Z,35.64
2023-04-25T12:26:41.550Z,36.36
2023-04-25T12:27:47.837Z,34.82
2023-04-25T12:28:41.589Z,35.73
2023-04-25T12:29:49.246Z,34.63
2023-04-25T12:30:43.005Z,36.97
2023-04-25T12:31:41.577Z,36.44
2023-04-25T12:32:41.502Z,35.42
2023-04-25T12:33:47.724Z,35.83
2023-04-25T12:34:41.530Z,34.83
2023-04-25T12:35:42.587Z,35.24
2023-04-25T12:36:41.429Z,35.88
2023-04-25T12:37:41.409Z,36.53
2023-04-25T12:38:41.455Z,37.80
2023-04-25T12:39:47.661Z,38.85
2023-04-25T12:40:41.365Z,39.79
2023-04-25T12:41:41.351Z,40.42
2023-04-25T12:42:41.375Z,42.36
2023-04-25T12:43:41.397Z,42.26
2023-04-25T12:44:47.640Z,42.65
2023-04-25T12:45:41.329Z,43.98
2023-04-25T12:46:41.360Z,41.20
2023-04-25T12:47:41.304Z,40.59
2023-04-25T12:48:41.280Z,40.28
2023-04-25T12:49:41.231Z,40.19
2023-04-25T12:50:47.490Z,40.61
2023-04-25T12:51:41.231Z,39.90
2023-04-25T12:52:41.220Z,41.24